createdAt,value
2019-05-05T00:00:07.477Z,99.52
2019-05-05T00:01:07.488Z,99.41
2019-05-05T00:02:07.485Z,99.31
2019-05-05T00:03:07.439Z,99.10
2019-05-05T00:04:07.432Z,99.20
2019-05-05T00:05:08.677Z,99.89
2019-05-05T00:06:07.404Z,99.26
2019-05-05T00:07:07.432Z,99.99
2019-05-05T00:08:07.404Z,99.93
2019-05-05T00:09:07.371Z,99.99
2019-05-05T00:10:07.377Z,99.99
2019-05-05T00:11:07.367Z,99.57
2019-05-05T00:12:07.387Z,99.99
2019-05-05T00:13:07.336Z,99.99
2019-05-05T00:14:07.334Z,99.99
2019-05-05T00:15:07.326Z,99.89
2019-05-05T00:16:07.293Z,99.79
2019-05-05T00:17:07.307Z,99.79
2019-05-05T00:18:07.273Z,99.99
2019-05-05T00:19:07.274Z,99.99
2019-05-05T00:20:07.300Z,99.99
2019-05-05T00:21:07.280Z,99.99
2019-05-05T00:22:07.243Z,99.99
2019-05-05T00:23:07.214Z,99.89
2019-05-05T00:24:07.205Z,99.37
2019-05-05T00:25:07.224Z,99.99
2019-05-05T00:26:07.214Z,99.99
2019-05-05T00:27:07.189Z,99.57
2019-05-05T00:28:07.159Z,99.68
2019-05-05T00:29:07.171Z,99.89
2019-05-05T00:30:07.177Z,99.26
2019-05-05T00:31:07.141Z,99.99
2019-05-05T00:32:07.148Z,99.99
2019-05-05T00:33:07.113Z,99.99
2019-05-05T00:34:07.113Z,99.99
2019-05-05T00:35:07.124Z,99.99
2019-05-05T00:36:07.801Z,99.99
2019-05-05T00:37:07.068Z,99.99
2019-05-05T00:38:07.081Z,99.99
2019-05-05T00:39:07.050Z,99.99
2019-05-05T00:40:07.031Z,99.99
2019-05-05T00:41:07.029Z,99.99
2019-05-05T00:42:07.013Z,99.99
2019-05-05T00:43:06.999Z,99.99
2019-05-05T00:44:07.014Z,99.99
2019-05-05T00:45:07.003Z,99.99
2019-05-05T00:46:06.971Z,99.99
2019-05-05T00:47:06.953Z,99.99
2019-05-05T00:48:06.959Z,99.99
2019-05-05T00:49:06.975Z,99.99
2019-05-05T00:50:06.954Z,99.99
2019-05-05T00:51:06.916Z,99.99
2019-05-05T00:52:06.966Z,99.99
2019-05-05T00:53:06.899Z,99.99
2019-05-05T00:54:06.876Z,99.99
2019-05-05T00:55:06.894Z,99.99
2019-05-05T00:56:06.889Z,99.99
2019-05-05T00:57:06.844Z,99.99
2019-05-05T00:58:06.862Z,99.99
2019-05-05T00:59:06.841Z,99.99
2019-05-05T01:00:06.835Z,99.99
2019-05-05T01:01:06.821Z,99.99
2019-05-05T01:02:06.821Z,99.99
2019-05-05T01:03:06.776Z,99.98
2019-05-05T01:04:06.793Z,99.99
2019-05-05T01:05:06.760Z,99.99
2019-05-05T01:06:06.757Z,99.99
2019-05-05T01:07:06.744Z,99.99
2019-05-05T01:08:06.777Z,99.99
2019-05-05T01:09:06.739Z,99.71
2019-05-05T01:10:06.716Z,99.92
2019-05-05T01:11:06.694Z,99.99
2019-05-05T01:12:06.711Z,99.82
2019-05-05T01:13:06.682Z,99.99
2019-05-05T01:14:06.676Z,99.99
2019-05-05T01:15:06.651Z,99.92
2019-05-05T01:16:06.640Z,99.99
2019-05-05T01:17:06.625Z,99.92
2019-05-05T01:18:06.614Z,99.99
2019-05-05T01:19:06.636Z,99.99
2019-05-05T01:20:06.912Z,99.99
2019-05-05T01:21:06.580Z,99.99
2019-05-05T01:22:06.576Z,99.99
2019-05-05T01:23:06.568Z,99.99
2019-05-05T01:24:06.552Z,99.99
2019-05-05T01:25:06.539Z,99.98
2019-05-05T01:26:06.556Z,99.99
2019-05-05T01:27:06.511Z,99.99
2019-05-05T01:28:06.504Z,99.99
2019-05-05T01:29:06.495Z,99.99
2019-05-05T01:30:06.477Z,99.99
2019-05-05T01:31:06.493Z,99.99
2019-05-05T01:32:06.486Z,99.99
2019-05-05T01:33:06.447Z,99.99
2019-05-05T01:34:06.433Z,99.99
2019-05-05T01:35:06.428Z,99.99
2019-05-05T01:36:06.433Z,99.99
2019-05-05T01:37:06.441Z,99.99
2019-05-05T01:38:06.418Z,99.99
2019-05-05T01:39:06.388Z,99.99
2019-05-05T01:40:06.395Z,99.99
2019-05-05T01:41:06.409Z,99.99
2019-05-05T01:42:06.366Z,99.99
2019-05-05T01:43:06.337Z,99.99
2019-05-05T01:44:06.346Z,99.99
2019-05-05T01:45:06.311Z,99.99
2019-05-05T01:46:06.308Z,99.99
2019-05-05T01:47:06.303Z,99.99
2019-05-05T01:48:06.280Z,99.99
2019-05-05T01:49:06.268Z,99.99
2019-05-05T01:50:17.219Z,99.99
2019-05-05T01:51:07.243Z,99.99
2019-05-05T01:52:06.248Z,99.99
2019-05-05T01:53:06.232Z,99.99
2019-05-05T01:54:06.216Z,99.99
2019-05-05T01:55:06.239Z,99.99
2019-05-05T01:56:06.219Z,99.99
2019-05-05T01:57:06.183Z,99.99
2019-05-05T01:58:06.185Z,99.99
2019-05-05T01:59:06.177Z,99.99
2019-05-05T02:00:06.187Z,99.99
2019-05-05T02:01:06.163Z,99.99
2019-05-05T02:02:06.159Z,99.99
2019-05-05T02:03:06.115Z,99.99
2019-05-05T02:04:06.127Z,99.99
2019-05-05T02:05:06.104Z,99.99
2019-05-05T02:06:06.089Z,99.99
2019-05-05T02:07:06.089Z,99.99
2019-05-05T02:08:06.087Z,99.99
2019-05-05T02:09:06.051Z,99.99
2019-05-05T02:10:06.274Z,99.99
2019-05-05T02:11:06.031Z,99.99
2019-05-05T02:12:06.014Z,99.99
2019-05-05T02:13:06.001Z,99.99
2019-05-05T02:14:06.018Z,99.99
2019-05-05T02:15:05.980Z,99.99
2019-05-05T02:16:05.970Z,99.99
2019-05-05T02:17:05.960Z,99.99
2019-05-05T02:18:05.946Z,99.99
2019-05-05T02:19:05.933Z,99.99
2019-05-05T02:20:05.944Z,99.99
2019-05-05T02:21:05.926Z,99.99
2019-05-05T02:22:05.922Z,99.99
2019-05-05T02:23:05.894Z,99.99
2019-05-05T02:24:05.915Z,99.99
2019-05-05T02:25:05.904Z,99.99
2019-05-05T02:26:05.884Z,99.99
2019-05-05T02:27:05.850Z,99.99
2019-05-05T02:28:05.836Z,99.99
2019-05-05T02:29:05.847Z,99.99
2019-05-05T02:30:06.473Z,99.99
2019-05-05T02:31:05.862Z,99.99
2019-05-05T02:32:06.555Z,99.99
2019-05-05T02:33:06.460Z,99.99
2019-05-05T02:34:05.781Z,99.99
2019-05-05T02:35:06.588Z,99.99
2019-05-05T02:36:05.888Z,99.99
2019-05-05T02:37:05.753Z,99.99
2019-05-05T02:38:06.613Z,99.99
2019-05-05T02:39:05.750Z,99.99
2019-05-05T02:40:07.632Z,99.99
2019-05-05T02:41:05.703Z,99.99
2019-05-05T02:42:05.991Z,99.99
2019-05-05T02:43:05.712Z,99.99
2019-05-05T02:44:05.681Z,99.99
2019-05-05T02:45:05.841Z,99.99
2019-05-05T02:46:05.853Z,99.99
2019-05-05T02:47:05.630Z,99.99
2019-05-05T02:48:06.166Z,99.99
2019-05-05T02:49:05.756Z,99.99
2019-05-05T02:50:05.644Z,99.99
2019-05-05T02:51:06.909Z,99.99
2019-05-05T02:52:05.576Z,99.99
2019-05-05T02:53:05.578Z,99.99
2019-05-05T02:54:05.556Z,99.99
2019-05-05T02:55:05.538Z,99.74
2019-05-05T02:56:05.575Z,99.99
2019-05-05T02:57:05.517Z,99.99
2019-05-05T02:58:05.537Z,99.99
2019-05-05T02:59:05.502Z,99.74
2019-05-05T03:00:05.499Z,99.95
2019-05-05T03:01:05.493Z,99.99
2019-05-05T03:02:05.484Z,99.85
2019-05-05T03:03:05.477Z,99.99
2019-05-05T03:04:05.461Z,99.99
2019-05-05T03:05:05.454Z,99.99
2019-05-05T03:06:05.422Z,99.99
2019-05-05T03:07:05.424Z,99.99
2019-05-05T03:08:05.457Z,99.99
2019-05-05T03:09:05.386Z,99.99
2019-05-05T03:10:05.401Z,99.99
2019-05-05T03:11:05.409Z,99.99
2019-05-05T03:12:05.365Z,99.99
2019-05-05T03:13:05.343Z,99.99
2019-05-05T03:14:05.351Z,99.99
2019-05-05T03:15:05.325Z,99.99
2019-05-05T03:16:05.303Z,99.99
2019-05-05T03:17:05.298Z,99.99
2019-05-05T03:18:05.311Z,99.70
2019-05-05T03:19:05.288Z,99.99
2019-05-05T03:20:05.280Z,99.99
2019-05-05T03:21:07.488Z,99.99
2019-05-05T03:22:05.243Z,99.99
2019-05-05T03:23:05.230Z,99.99
2019-05-05T03:24:05.214Z,99.99
2019-05-05T03:25:05.227Z,99.95
2019-05-05T03:26:05.210Z,99.99
2019-05-05T03:27:05.192Z,99.99
2019-05-05T03:28:05.175Z,99.99
2019-05-05T03:29:05.166Z,99.79
2019-05-05T03:30:05.351Z,99.99
2019-05-05T03:31:05.286Z,99.90
2019-05-05T03:32:05.864Z,99.99
2019-05-05T03:33:05.696Z,99.90
2019-05-05T03:34:06.152Z,99.90
2019-05-05T03:35:05.111Z,99.99
2019-05-05T03:36:05.134Z,99.99
2019-05-05T03:37:05.074Z,99.99
2019-05-05T03:38:05.086Z,99.99
2019-05-05T03:39:05.200Z,99.99
2019-05-05T03:40:05.056Z,99.99
2019-05-05T03:41:05.043Z,99.99
2019-05-05T03:42:05.017Z,99.99
2019-05-05T03:43:05.021Z,99.99
2019-05-05T03:44:05.023Z,99.99
2019-05-05T03:45:04.993Z,99.99
2019-05-05T03:46:04.979Z,99.99
2019-05-05T03:47:04.987Z,99.99
2019-05-05T03:48:04.953Z,99.99
2019-05-05T03:49:04.986Z,99.99
2019-05-05T03:50:04.958Z,99.99
2019-05-05T03:51:16.081Z,99.99
2019-05-05T03:52:05.921Z,99.99
2019-05-05T03:53:05.048Z,99.99
2019-05-05T03:54:04.888Z,99.99
2019-05-05T03:55:04.885Z,99.99
2019-05-05T03:56:04.910Z,99.99
2019-05-05T03:57:04.882Z,99.99
2019-05-05T03:58:04.855Z,99.90
2019-05-05T03:59:05.059Z,99.99
2019-05-05T04:00:04.817Z,99.99
2019-05-05T04:01:04.844Z,99.99
2019-05-05T04:02:04.849Z,99.99
2019-05-05T04:03:04.800Z,99.99
2019-05-05T04:04:04.790Z,99.99
2019-05-05T04:05:04.793Z,99.99
2019-05-05T04:06:04.760Z,99.99
2019-05-05T04:07:04.960Z,99.99
2019-05-05T04:08:04.783Z,99.99
2019-05-05T04:09:04.720Z,99.99
2019-05-05T04:10:04.726Z,99.99
2019-05-05T04:11:04.713Z,99.99
2019-05-05T04:12:04.717Z,99.99
2019-05-05T04:13:04.820Z,99.99
2019-05-05T04:14:04.700Z,99.99
2019-05-05T04:15:04.692Z,99.99
2019-05-05T04:16:04.681Z,99.99
2019-05-05T04:17:04.647Z,99.99
2019-05-05T04:18:04.641Z,99.99
2019-05-05T04:19:04.607Z,99.99
2019-05-05T04:20:04.630Z,99.99
2019-05-05T04:21:04.596Z,99.99
2019-05-05T04:22:04.609Z,99.99
2019-05-05T04:23:04.581Z,99.99
2019-05-05T04:24:04.562Z,99.99
2019-05-05T04:25:04.724Z,99.99
2019-05-05T04:26:04.552Z,99.99
2019-05-05T04:27:04.530Z,99.99
2019-05-05T04:28:04.618Z,99.99
2019-05-05T04:29:05.283Z,99.99
2019-05-05T04:30:04.510Z,99.99
2019-05-05T04:31:04.490Z,99.99
2019-05-05T04:32:04.758Z,99.99
2019-05-05T04:33:04.463Z,99.99
2019-05-05T04:34:04.444Z,99.99
2019-05-05T04:35:04.434Z,99.99
2019-05-05T04:36:04.459Z,99.99
2019-05-05T04:37:04.428Z,99.99
2019-05-05T04:38:04.876Z,99.99
2019-05-05T04:39:04.417Z,99.99
2019-05-05T04:40:04.416Z,99.99
2019-05-05T04:41:04.371Z,99.99
2019-05-05T04:42:04.860Z,99.99
2019-05-05T04:43:04.347Z,99.99
2019-05-05T04:44:04.385Z,99.99
2019-05-05T04:45:04.344Z,99.99
2019-05-05T04:46:04.581Z,99.99
2019-05-05T04:47:04.302Z,99.99
2019-05-05T04:48:04.398Z,99.99
2019-05-05T04:49:04.283Z,99.99
2019-05-05T04:50:04.423Z,99.99
2019-05-05T04:51:04.760Z,99.99
2019-05-05T04:52:04.247Z,99.99
2019-05-05T04:53:04.578Z,99.99
2019-05-05T04:54:04.224Z,99.99
2019-05-05T04:55:04.235Z,99.99
2019-05-05T04:56:04.388Z,99.99
2019-05-05T04:57:04.593Z,99.99
2019-05-05T04:58:04.677Z,99.99
2019-05-05T04:59:04.227Z,99.99
2019-05-05T05:00:04.260Z,99.99
2019-05-05T05:01:04.736Z,99.99
2019-05-05T05:02:04.192Z,99.99
2019-05-05T05:03:04.546Z,99.99
2019-05-05T05:04:04.114Z,99.99
2019-05-05T05:05:04.211Z,99.99
2019-05-05T05:06:04.233Z,99.99
2019-05-05T05:07:04.747Z,99.99
2019-05-05T05:08:04.098Z,99.99
2019-05-05T05:09:04.148Z,99.99
2019-05-05T05:10:04.569Z,99.99
2019-05-05T05:11:04.067Z,99.99
2019-05-05T05:12:04.154Z,99.99
2019-05-05T05:13:04.630Z,99.99
2019-05-05T05:14:04.027Z,99.99
2019-05-05T05:15:04.413Z,99.99
2019-05-05T05:16:04.592Z,99.99
2019-05-05T05:17:04.023Z,99.99
2019-05-05T05:18:04.174Z,99.99
2019-05-05T05:19:04.371Z,99.99
2019-05-05T05:20:03.960Z,99.99
2019-05-05T05:21:04.117Z,99.99
2019-05-05T05:22:04.981Z,99.99
2019-05-05T05:23:03.929Z,99.99
2019-05-05T05:24:04.107Z,99.99
2019-05-05T05:25:04.535Z,99.99
2019-05-05T05:26:05.105Z,99.99
2019-05-05T05:27:05.011Z,99.99
2019-05-05T05:28:04.322Z,99.99
2019-05-05T05:29:04.551Z,99.99
2019-05-05T05:30:04.671Z,99.99
2019-05-05T05:31:04.037Z,99.99
2019-05-05T05:32:04.290Z,99.99
2019-05-05T05:33:04.438Z,99.99
2019-05-05T05:34:04.399Z,99.99
2019-05-05T05:35:03.868Z,99.99
2019-05-05T05:36:04.153Z,99.99
2019-05-05T05:37:04.330Z,99.99
2019-05-05T05:38:04.615Z,99.99
2019-05-05T05:39:03.726Z,99.99
2019-05-05T05:40:03.990Z,99.99
2019-05-05T05:41:04.265Z,99.99
2019-05-05T05:42:04.521Z,99.99
2019-05-05T05:43:04.668Z,99.99
2019-05-05T05:44:03.729Z,99.99
2019-05-05T05:45:04.152Z,99.99
2019-05-05T05:46:04.403Z,99.99
2019-05-05T05:47:03.744Z,99.99
2019-05-05T05:48:04.164Z,99.99
2019-05-05T05:49:04.509Z,99.99
2019-05-05T05:50:04.119Z,99.99
2019-05-05T05:51:04.218Z,99.99
2019-05-05T05:52:13.389Z,99.99
2019-05-05T05:53:04.846Z,99.99
2019-05-05T05:54:03.800Z,99.99
2019-05-05T05:55:04.164Z,99.99
2019-05-05T05:56:04.358Z,99.99
2019-05-05T05:57:04.339Z,99.90
2019-05-05T05:58:04.845Z,99.99
2019-05-05T05:59:03.711Z,99.99
2019-05-05T06:00:04.099Z,99.79
2019-05-05T06:01:04.282Z,99.95
2019-05-05T06:02:09.875Z,99.74
2019-05-05T06:03:04.468Z,99.54
2019-05-05T06:04:04.076Z,99.18
2019-05-05T06:05:04.366Z,99.13
2019-05-05T06:06:04.701Z,98.51
2019-05-05T06:07:04.094Z,98.72
2019-05-05T06:08:04.782Z,98.20
2019-05-05T06:09:04.264Z,98.55
2019-05-05T06:10:03.822Z,98.41
2019-05-05T06:11:04.412Z,98.55
2019-05-05T06:12:03.647Z,98.35
2019-05-05T06:13:04.131Z,98.35
2019-05-05T06:14:04.001Z,98.45
2019-05-05T06:15:03.832Z,97.62
2019-05-05T06:16:04.260Z,97.62
2019-05-05T06:17:04.263Z,97.72
2019-05-05T06:18:04.656Z,97.93
2019-05-05T06:19:03.751Z,97.47
2019-05-05T06:20:04.036Z,97.62
2019-05-05T06:21:04.493Z,97.37
2019-05-05T06:22:03.624Z,97.16
2019-05-05T06:23:04.084Z,97.16
2019-05-05T06:24:04.524Z,97.27
2019-05-05T06:25:06.528Z,96.95
2019-05-05T06:26:06.820Z,96.54
2019-05-05T06:27:03.726Z,96.64
2019-05-05T06:28:04.306Z,96.64
2019-05-05T06:29:04.370Z,96.44
2019-05-05T06:30:04.530Z,96.12
2019-05-05T06:31:04.850Z,95.50
2019-05-05T06:32:03.993Z,95.25
2019-05-05T06:33:04.899Z,95.87
2019-05-05T06:34:03.684Z,95.56
2019-05-05T06:35:03.664Z,95.20
2019-05-05T06:36:03.805Z,95.20
2019-05-05T06:37:04.252Z,94.89
2019-05-05T06:38:04.711Z,94.89
2019-05-05T06:39:04.579Z,95.10
2019-05-05T06:40:03.782Z,93.85
2019-05-05T06:41:04.211Z,94.37
2019-05-05T06:42:04.508Z,94.21
2019-05-05T06:43:04.474Z,94.15
2019-05-05T06:44:03.756Z,94.15
2019-05-05T06:45:04.163Z,94.15
2019-05-05T06:46:04.054Z,94.36
2019-05-05T06:47:04.646Z,94.42
2019-05-05T06:48:04.310Z,93.96
2019-05-05T06:49:04.335Z,93.96
2019-05-05T06:50:03.681Z,93.44
2019-05-05T06:51:03.985Z,93.54
2019-05-05T06:52:04.026Z,93.40
2019-05-05T06:53:04.287Z,93.15
2019-05-05T06:54:04.662Z,92.94
2019-05-05T06:55:03.752Z,91.91
2019-05-05T06:56:04.043Z,92.01
2019-05-05T06:57:04.523Z,91.70
2019-05-05T06:58:04.582Z,91.39
2019-05-05T06:59:04.452Z,91.18
2019-05-05T07:00:03.653Z,91.45
2019-05-05T07:01:03.607Z,91.49
2019-05-05T07:02:04.234Z,91.08
2019-05-05T07:03:05.830Z,91.70
2019-05-05T07:04:03.467Z,91.91
2019-05-05T07:05:04.041Z,92.68
2019-05-05T07:06:04.232Z,92.05
2019-05-05T07:07:04.909Z,92.78
2019-05-05T07:08:04.429Z,92.78
2019-05-05T07:09:02.730Z,93.60
2019-05-05T07:10:03.753Z,92.98
2019-05-05T07:11:04.109Z,92.47
2019-05-05T07:12:04.553Z,93.04
2019-05-05T07:13:04.830Z,91.70
2019-05-05T07:14:03.716Z,90.35
2019-05-05T07:15:04.194Z,91.39
2019-05-05T07:16:04.735Z,91.66
2019-05-05T07:17:04.913Z,90.62
2019-05-05T07:18:03.699Z,91.03
2019-05-05T07:19:04.377Z,90.58
2019-05-05T07:20:04.338Z,90.99
2019-05-05T07:21:03.626Z,90.10
2019-05-05T07:22:04.074Z,87.87
2019-05-05T07:23:05.269Z,89.07
2019-05-05T07:24:03.994Z,89.69
2019-05-05T07:25:04.617Z,90.14
2019-05-05T07:26:04.189Z,89.56
2019-05-05T07:27:04.559Z,89.71
2019-05-05T07:28:04.269Z,91.02
2019-05-05T07:29:04.478Z,90.19
2019-05-05T07:30:04.594Z,91.64
2019-05-05T07:31:04.441Z,91.64
2019-05-05T07:32:03.974Z,91.53
2019-05-05T07:33:04.462Z,91.64
2019-05-05T07:34:04.688Z,91.33
2019-05-05T07:35:04.119Z,91.53
2019-05-05T07:36:05.855Z,91.95
2019-05-05T07:37:03.833Z,92.47
2019-05-05T07:38:04.372Z,92.68
2019-05-05T07:39:03.803Z,92.43
2019-05-05T07:40:04.203Z,92.43
2019-05-05T07:41:03.651Z,92.53
2019-05-05T07:42:04.429Z,91.60
2019-05-05T07:43:04.362Z,91.12
2019-05-05T07:44:02.378Z,91.33
2019-05-05T07:45:05.443Z,91.74
2019-05-05T07:46:04.451Z,92.57
2019-05-05T07:47:03.662Z,92.16
2019-05-05T07:48:04.639Z,91.68
2019-05-05T07:49:03.864Z,91.78
2019-05-05T07:50:04.138Z,91.99
2019-05-05T07:51:05.051Z,93.65
2019-05-05T07:52:04.054Z,92.72
2019-05-05T07:53:12.275Z,93.23
2019-05-05T07:54:03.919Z,93.23
2019-05-05T07:55:03.614Z,93.18
2019-05-05T07:56:03.941Z,93.33
2019-05-05T07:57:04.158Z,93.54
2019-05-05T07:58:04.190Z,93.96
2019-05-05T07:59:03.822Z,94.06
2019-05-05T08:00:02.191Z,94.27
2019-05-05T08:01:02.184Z,94.58
2019-05-05T08:02:03.989Z,94.23
2019-05-05T08:03:03.720Z,94.02
2019-05-05T08:04:04.295Z,94.33
2019-05-05T08:05:02.141Z,93.91
2019-05-05T08:06:03.924Z,94.02
2019-05-05T08:07:04.017Z,93.71
2019-05-05T08:08:04.451Z,93.81
2019-05-05T08:09:03.945Z,93.29
2019-05-05T08:10:04.388Z,93.29
2019-05-05T08:11:02.080Z,92.57
2019-05-05T08:12:04.212Z,93.35
2019-05-05T08:13:02.053Z,93.46
2019-05-05T08:14:04.020Z,93.25
2019-05-05T08:15:04.154Z,93.25
2019-05-05T08:16:03.812Z,93.15
2019-05-05T08:17:03.607Z,93.46
2019-05-05T08:18:01.995Z,93.46
2019-05-05T08:19:03.836Z,93.62
2019-05-05T08:20:03.962Z,93.10
2019-05-05T08:21:04.081Z,92.38
2019-05-05T08:22:03.687Z,91.66
2019-05-05T08:23:04.128Z,92.44
2019-05-05T08:24:01.962Z,92.55
2019-05-05T08:25:03.884Z,92.34
2019-05-05T08:26:01.929Z,91.03
2019-05-05T08:27:04.371Z,91.51
2019-05-05T08:28:04.154Z,91.30
2019-05-05T08:29:01.895Z,91.41
2019-05-05T08:30:05.008Z,91.36
2019-05-05T08:31:03.813Z,91.26
2019-05-05T08:32:04.231Z,91.57
2019-05-05T08:33:01.841Z,90.91
2019-05-05T08:34:03.858Z,90.29
2019-05-05T08:35:04.206Z,89.92
2019-05-05T08:36:01.811Z,90.91
2019-05-05T08:37:03.764Z,91.01
2019-05-05T08:38:01.848Z,89.94
2019-05-05T08:39:03.634Z,89.79
2019-05-05T08:40:01.771Z,88.84
2019-05-05T08:41:01.751Z,88.39
2019-05-05T08:42:04.121Z,86.49
2019-05-05T08:43:01.742Z,83.26
2019-05-05T08:44:03.509Z,83.05
2019-05-05T08:45:01.707Z,84.33
2019-05-05T08:46:01.695Z,84.36
2019-05-05T08:47:01.689Z,85.46
2019-05-05T08:48:01.687Z,85.09
2019-05-05T08:49:01.677Z,85.75
2019-05-05T08:50:01.672Z,85.75
2019-05-05T08:51:01.638Z,84.92
2019-05-05T08:52:03.865Z,83.99
2019-05-05T08:53:01.629Z,84.72
2019-05-05T08:54:03.768Z,85.09
2019-05-05T08:55:01.594Z,85.50
2019-05-05T08:56:01.599Z,82.30
2019-05-05T08:57:01.577Z,83.85
2019-05-05T08:58:01.564Z,84.88
2019-05-05T08:59:03.546Z,84.01
2019-05-05T09:00:01.536Z,83.81
2019-05-05T09:01:01.534Z,82.74
2019-05-05T09:02:01.541Z,82.43
2019-05-05T09:03:03.587Z,82.74
2019-05-05T09:04:01.495Z,80.72
2019-05-05T09:05:01.484Z,82.29
2019-05-05T09:06:01.470Z,81.57
2019-05-05T09:07:01.456Z,81.49
2019-05-05T09:08:01.479Z,78.74
2019-05-05T09:09:03.690Z,77.10
2019-05-05T09:10:03.740Z,76.18
2019-05-05T09:11:01.411Z,78.58
2019-05-05T09:12:01.396Z,78.61
2019-05-05T09:13:03.673Z,79.64
2019-05-05T09:14:01.393Z,80.85
2019-05-05T09:15:01.363Z,81.47
2019-05-05T09:16:03.580Z,82.60
2019-05-05T09:17:01.343Z,81.67
2019-05-05T09:18:01.326Z,82.67
2019-05-05T09:19:01.318Z,80.02
2019-05-05T09:20:01.334Z,79.47
2019-05-05T09:21:01.303Z,79.64
2019-05-05T09:22:01.284Z,78.96
2019-05-05T09:23:01.265Z,78.33
2019-05-05T09:24:03.283Z,78.09
2019-05-05T09:25:01.247Z,77.34
2019-05-05T09:26:01.247Z,74.91
2019-05-05T09:27:03.477Z,75.93
2019-05-05T09:28:03.143Z,74.84
2019-05-05T09:29:01.195Z,76.04
2019-05-05T09:30:01.182Z,74.29
2019-05-05T09:31:01.191Z,75.04
2019-05-05T09:32:01.185Z,73.95
2019-05-05T09:33:01.157Z,70.06
2019-05-05T09:34:01.140Z,67.82
2019-05-05T09:35:01.162Z,61.08
2019-05-05T09:36:01.128Z,63.65
2019-05-05T09:37:01.111Z,65.80
2019-05-05T09:38:01.111Z,68.05
2019-05-05T09:39:01.088Z,67.40
2019-05-05T09:40:01.072Z,70.53
2019-05-05T09:41:01.070Z,67.40
2019-05-05T09:42:01.049Z,68.93
2019-05-05T09:43:01.043Z,67.78
2019-05-05T09:44:01.071Z,64.74
2019-05-05T09:45:01.015Z,69.24
2019-05-05T09:46:01.010Z,71.25
2019-05-05T09:47:01.060Z,72.69
2019-05-05T09:48:00.984Z,67.07
2019-05-05T09:49:00.973Z,66.82
2019-05-05T09:50:00.979Z,66.74
2019-05-05T09:51:00.947Z,61.11
2019-05-05T09:52:00.942Z,60.98
2019-05-05T09:53:00.935Z,63.99
2019-05-05T09:54:11.940Z,63.86
2019-05-05T09:55:03.811Z,67.94
2019-05-05T09:56:00.895Z,69.44
2019-05-05T09:57:00.946Z,71.28
2019-05-05T09:58:00.872Z,71.90
2019-05-05T09:59:00.862Z,71.39
2019-05-05T10:00:00.854Z,71.25
2019-05-05T10:01:00.867Z,72.51
2019-05-05T10:02:00.830Z,72.96
2019-05-05T10:03:00.819Z,73.74
2019-05-05T10:04:00.802Z,75.29
2019-05-05T10:05:00.793Z,76.14
2019-05-05T10:06:00.786Z,77.37
2019-05-05T10:07:00.791Z,76.28
2019-05-05T10:08:00.758Z,78.54
2019-05-05T10:09:00.748Z,77.86
2019-05-05T10:10:00.738Z,78.27
2019-05-05T10:11:00.731Z,79.54
2019-05-05T10:12:00.720Z,80.84
2019-05-05T10:13:00.729Z,81.39
2019-05-05T10:14:00.691Z,81.05
2019-05-05T10:15:00.681Z,81.05
2019-05-05T10:16:00.669Z,81.52
2019-05-05T10:17:00.659Z,81.25
2019-05-05T10:18:00.646Z,81.38
2019-05-05T10:19:00.657Z,79.84
2019-05-05T10:20:00.634Z,76.55
2019-05-05T10:21:00.612Z,81.59
2019-05-05T10:22:00.600Z,81.41
2019-05-05T10:23:00.588Z,81.06
2019-05-05T10:24:00.595Z,76.48
2019-05-05T10:25:00.587Z,77.30
2019-05-05T10:26:00.557Z,77.00
2019-05-05T10:27:00.545Z,75.90
2019-05-05T10:28:00.534Z,79.49
2019-05-05T10:29:01.255Z,78.81
2019-05-05T10:30:00.512Z,76.86
2019-05-05T10:31:00.527Z,79.68
2019-05-05T10:32:00.491Z,82.09
2019-05-05T10:33:00.479Z,81.09
2019-05-05T10:34:00.469Z,82.68
2019-05-05T10:35:00.454Z,83.13
2019-05-05T10:36:00.439Z,83.75
2019-05-05T10:37:00.455Z,84.16
2019-05-05T10:38:00.421Z,84.36
2019-05-05T10:39:00.405Z,84.99
2019-05-05T10:40:00.393Z,84.20
2019-05-05T10:41:00.379Z,85.13
2019-05-05T10:42:00.381Z,84.72
2019-05-05T10:43:00.387Z,86.26
2019-05-05T10:44:00.348Z,86.61
2019-05-05T10:45:00.332Z,87.50
2019-05-05T10:46:00.322Z,85.95
2019-05-05T10:47:00.326Z,84.92
2019-05-05T10:48:00.327Z,85.13
2019-05-05T10:49:00.303Z,85.54
2019-05-05T10:50:00.276Z,86.36
2019-05-05T10:51:00.269Z,85.58
2019-05-05T10:52:00.255Z,86.57
2019-05-05T10:53:00.243Z,88.64
2019-05-05T10:54:00.230Z,87.77
2019-05-05T10:55:00.244Z,86.63
2019-05-05T10:56:00.235Z,83.75
2019-05-05T10:57:00.196Z,83.81
2019-05-05T10:58:00.183Z,85.22
2019-05-05T10:59:00.167Z,83.15
2019-05-05T11:00:10.079Z,81.67
2019-05-05T11:01:01.163Z,81.37
2019-05-05T11:02:00.145Z,81.02
2019-05-05T11:03:00.134Z,79.68
2019-05-05T11:04:00.117Z,79.75
2019-05-05T11:05:00.095Z,78.00
2019-05-05T11:06:00.092Z,79.57
2019-05-05T11:07:00.099Z,80.08
2019-05-05T11:08:00.057Z,79.02
2019-05-05T11:09:00.053Z,76.31
2019-05-05T11:10:00.038Z,75.70
2019-05-05T11:11:00.043Z,77.51
2019-05-05T11:12:00.019Z,76.14
2019-05-05T11:13:00.060Z,77.13
2019-05-05T11:13:59.996Z,74.77
2019-05-05T11:14:59.978Z,71.80
2019-05-05T11:15:59.989Z,74.29
2019-05-05T11:16:59.961Z,76.27
2019-05-05T11:17:59.956Z,76.44
2019-05-05T11:18:59.951Z,77.23
2019-05-05T11:19:59.944Z,76.37
2019-05-05T11:20:59.957Z,77.09
2019-05-05T11:21:59.902Z,76.30
2019-05-05T11:22:59.888Z,75.17
2019-05-05T11:23:59.879Z,75.17
2019-05-05T11:25:01.183Z,73.54
2019-05-05T11:25:59.879Z,70.40
2019-05-05T11:26:59.871Z,69.20
2019-05-05T11:27:59.834Z,69.51
2019-05-05T11:28:59.834Z,72.04
2019-05-05T11:29:59.808Z,72.21
2019-05-05T11:30:59.845Z,70.88
2019-05-05T11:31:59.787Z,66.45
2019-05-05T11:32:59.779Z,65.56
2019-05-05T11:33:59.767Z,66.38
2019-05-05T11:34:59.755Z,66.58
2019-05-05T11:35:59.745Z,68.73
2019-05-05T11:36:59.759Z,67.10
2019-05-05T11:37:59.720Z,65.87
2019-05-05T11:38:59.707Z,68.22
2019-05-05T11:39:59.699Z,65.56
2019-05-05T11:40:59.692Z,65.36
2019-05-05T11:41:59.685Z,69.17
2019-05-05T11:42:59.680Z,66.20
2019-05-05T11:43:59.659Z,68.66
2019-05-05T11:44:59.643Z,65.93
2019-05-05T11:45:59.648Z,64.60
2019-05-05T11:46:59.627Z,64.98
2019-05-05T11:47:59.613Z,65.83
2019-05-05T11:48:59.630Z,68.49
2019-05-05T11:49:59.605Z,71.12
2019-05-05T11:50:59.576Z,68.15
2019-05-05T11:51:59.569Z,66.78
2019-05-05T11:52:59.553Z,69.17
2019-05-05T11:53:59.548Z,66.58
2019-05-05T11:55:09.686Z,65.69
2019-05-05T11:56:00.524Z,65.21
2019-05-05T11:56:59.509Z,69.17
2019-05-05T11:57:59.498Z,67.33
2019-05-05T11:58:59.487Z,64.95
2019-05-05T11:59:59.474Z,66.38
2019-05-05T12:00:59.481Z,64.57
2019-05-05T12:01:59.467Z,66.51
2019-05-05T12:02:59.439Z,67.02
2019-05-05T12:03:59.431Z,64.26
2019-05-05T12:04:59.427Z,69.07
2019-05-05T12:05:59.405Z,68.05
2019-05-05T12:06:59.409Z,70.67
2019-05-05T12:07:59.390Z,70.91
2019-05-05T12:08:59.383Z,70.03
2019-05-05T12:09:59.362Z,70.16
2019-05-05T12:10:59.361Z,69.54
2019-05-05T12:11:59.338Z,69.10
2019-05-05T12:12:59.344Z,70.97
2019-05-05T12:13:59.318Z,72.51
2019-05-05T12:14:59.311Z,71.21
2019-05-05T12:15:59.296Z,71.04
2019-05-05T12:16:59.281Z,71.14
2019-05-05T12:17:59.281Z,69.23
2019-05-05T12:18:59.280Z,69.60
2019-05-05T12:19:59.268Z,69.26
2019-05-05T12:20:59.234Z,70.21
2019-05-05T12:21:59.222Z,70.42
2019-05-05T12:22:59.256Z,69.60
2019-05-05T12:23:59.210Z,69.09
2019-05-05T12:24:59.205Z,71.86
2019-05-05T12:25:59.183Z,71.11
2019-05-05T12:26:59.164Z,69.23
2019-05-05T12:27:59.159Z,71.48
2019-05-05T12:28:59.143Z,69.40
2019-05-05T12:29:59.132Z,69.29
2019-05-05T12:30:59.138Z,68.57
2019-05-05T12:31:59.104Z,66.63
2019-05-05T12:32:59.096Z,67.44
2019-05-05T12:33:59.090Z,68.99
2019-05-05T12:34:59.068Z,63.37
2019-05-05T12:35:59.058Z,66.66
2019-05-05T12:36:59.067Z,67.86
2019-05-05T12:37:59.035Z,64.44
2019-05-05T12:38:59.028Z,63.54
2019-05-05T12:39:59.014Z,67.52
2019-05-05T12:40:59.003Z,63.10
2019-05-05T12:41:59.005Z,61.26
2019-05-05T12:42:59.002Z,61.57
2019-05-05T12:43:58.968Z,63.07
2019-05-05T12:44:58.956Z,63.28
2019-05-05T12:45:58.940Z,60.58
2019-05-05T12:46:58.930Z,63.76
2019-05-05T12:47:58.929Z,60.79
2019-05-05T12:48:58.928Z,60.41
2019-05-05T12:49:58.897Z,63.56
2019-05-05T12:50:58.887Z,63.73
2019-05-05T12:51:58.872Z,63.73